Time;durP1;ratioP1;P1;durP2;ratioP2;P2;SDS_P1;SDS_P2;PMS_P1;PMS_P2;Temp;Humidity;BMP_temperature;BMP_pressure;BME280_temperature;BME280_humidity;BME280_pressure;Samples;Min_cycle;Max_cycle;Signal;HPM_P1;HPM_P2
2021/12/25 00:00:36;;;;;;;0.50;0.50;;;18.20;25.00;;;;;;5055288;28;20784;-63
2021/12/25 00:03:04;;;;;;;0.50;0.50;;;18.20;25.10;;;;;;5056217;28;20703;-63
2021/12/25 00:05:32;;;;;;;2.65;2.10;;;18.20;25.10;;;;;;5049852;28;20209;-62
2021/12/25 00:08:00;;;;;;;3.35;2.60;;;18.10;25.00;;;;;;5035246;28;20202;-63
2021/12/25 00:10:30;;;;;;;2.13;1.88;;;18.10;25.00;;;;;;5035729;28;20212;-63
2021/12/25 00:12:57;;;;;;;3.80;2.35;;;18.10;25.00;;;;;;5035508;28;20209;-63
2021/12/25 00:15:26;;;;;;;3.65;2.20;;;18.10;25.10;;;;;;5035368;28;20659;-63
2021/12/25 00:17:55;;;;;;;3.05;2.22;;;18.10;25.10;;;;;;5035723;28;20310;-63
2021/12/25 00:20:22;;;;;;;2.53;1.85;;;18.00;25.10;;;;;;5035944;28;20217;-62
2021/12/25 00:22:50;;;;;;;3.00;1.80;;;18.10;25.10;;;;;;5035364;28;20214;-63
2021/12/25 00:25:19;;;;;;;2.22;1.83;;;18.00;25.00;;;;;;5035012;28;20536;-62
2021/12/25 00:27:55;;;;;;;1.98;1.70;;;18.00;25.00;;;;;;5018189;28;20210;-63
2021/12/25 00:30:30;;;;;;;2.47;1.60;;;18.00;25.10;;;;;;5035104;28;20210;-63
2021/12/25 00:33:04;;;;;;;2.55;1.83;;;18.00;25.20;;;;;;5035334;28;20205;-62
2021/12/25 00:35:31;;;;;;;3.00;1.80;;;18.00;25.20;;;;;;5034521;28;20237;-62
2021/12/25 00:37:59;;;;;;;2.22;1.85;;;17.90;25.20;;;;;;5035120;28;20232;-63
2021/12/25 00:40:28;;;;;;;2.10;1.77;;;17.90;25.20;;;;;;5034810;28;20620;-63
2021/12/25 00:42:55;;;;;;;3.58;2.08;;;18.00;25.30;;;;;;5024371;28;20229;-63
2021/12/25 00:45:23;;;;;;;4.35;2.00;;;17.90;25.20;;;;;;5034361;28;20256;-63
2021/12/25 00:47:50;;;;;;;2.40;2.00;;;18.00;25.30;;;;;;5037165;28;20212;-63
2021/12/25 00:50:19;;;;;;;2.03;1.77;;;18.00;26.00;;;;;;5038574;28;20205;-62
2021/12/25 00:52:46;;;;;;;2.83;2.05;;;17.90;25.20;;;;;;5038563;28;20220;-63
2021/12/25 00:55:14;;;;;;;3.38;2.10;;;17.90;25.30;;;;;;5057735;28;20241;-62
2021/12/25 00:57:41;;;;;;;3.72;2.10;;;17.90;25.30;;;;;;5058166;28;20224;-63
2021/12/25 01:00:12;;;;;;;2.35;2.15;;;17.90;25.30;;;;;;5058076;28;20516;-63
2021/12/25 01:02:41;;;;;;;3.17;2.20;;;17.90;25.40;;;;;;5057878;28;20274;-63
2021/12/25 01:05:10;;;;;;;3.47;2.20;;;17.90;25.30;;;;;;5058522;28;20294;-62
2021/12/25 01:07:39;;;;;;;3.55;2.22;;;17.90;25.40;;;;;;5058884;28;20224;-63
2021/12/25 01:10:13;;;;;;;3.08;2.15;;;17.90;25.30;;;;;;5058647;28;20212;-62
2021/12/25 01:12:53;;;;;;;2.33;2.10;;;17.90;25.30;;;;;;5058104;28;20282;-62
2021/12/25 01:15:26;;;;;;;3.45;2.20;;;17.80;25.40;;;;;;5058303;28;20205;-62
2021/12/25 01:21:00;;;;;;;3.47;2.42;;;17.90;25.30;;;;;;5017888;28;20200;-63
2021/12/25 01:31:57;;;;;;;1.92;1.70;;;17.80;25.40;;;;;;5010388;28;20193;-62
2021/12/25 01:34:58;;;;;;;1.88;1.73;;;17.80;25.50;;;;;;5057884;28;20216;-63
2021/12/25 01:37:37;;;;;;;2.85;1.63;;;17.70;25.30;;;;;;5057552;28;20229;-62
2021/12/25 01:40:23;;;;;;;2.20;1.50;;;17.70;25.30;;;;;;5057689;28;20204;-62
2021/12/25 01:48:21;;;;;;;1.60;1.35;;;17.70;25.30;;;;;;5057305;28;20207;-63
2021/12/25 01:50:49;;;;;;;1.58;1.48;;;17.70;25.30;;;;;;5057969;28;20244;-62
2021/12/25 01:53:17;;;;;;;1.48;1.38;;;17.70;25.30;;;;;;5057838;28;20270;-62
2021/12/25 01:55:46;;;;;;;1.75;1.35;;;17.70;25.30;;;;;;5043989;28;20226;-62
2021/12/25 01:58:13;;;;;;;1.60;1.50;;;17.70;25.40;;;;;;5036581;28;20230;-63
2021/12/25 02:00:46;;;;;;;1.52;1.30;;;17.70;25.30;;;;;;5037420;28;20205;-63
2021/12/25 02:03:17;;;;;;;2.20;1.23;;;17.60;25.30;;;;;;5037719;28;20217;-62
2021/12/25 02:05:45;;;;;;;1.38;1.27;;;17.60;25.30;;;;;;5042441;28;20197;-63
2021/12/25 02:08:13;;;;;;;1.63;1.35;;;17.60;25.30;;;;;;5057706;28;20268;-63
2021/12/25 02:10:41;;;;;;;1.40;1.30;;;17.60;25.40;;;;;;5057443;28;20213;-63
2021/12/25 02:13:12;;;;;;;1.52;1.30;;;17.60;25.30;;;;;;5057442;28;20282;-63
2021/12/25 02:15:42;;;;;;;1.52;1.42;;;17.60;25.30;;;;;;5057276;28;20708;-63
2021/12/25 02:18:14;;;;;;;1.90;1.40;;;17.60;25.40;;;;;;5057213;28;20273;-62
2021/12/25 02:20:50;;;;;;;4.20;1.50;;;17.50;25.30;;;;;;5051160;28;20205;-62
2021/12/25 02:23:22;;;;;;;47.97;3.75;;;17.50;25.70;;;;;;5057357;28;20208;-62
2021/12/25 02:25:51;;;;;;;9.48;1.80;;;17.60;27.00;;;;;;5057144;28;20209;-62
2021/12/25 02:28:19;;;;;;;4.78;1.40;;;17.60;27.50;;;;;;5057023;28;20207;-62
2021/12/25 02:30:49;;;;;;;3.40;1.50;;;17.60;27.50;;;;;;5057481;28;20208;-62
2021/12/25 02:33:17;;;;;;;3.85;1.45;;;17.60;27.20;;;;;;5057089;28;20223;-62
2021/12/25 02:35:47;;;;;;;5.05;1.45;;;17.50;27.00;;;;;;5057746;28;20505;-63
2021/12/25 02:38:15;;;;;;;4.45;1.45;;;17.50;27.40;;;;;;5057130;28;20286;-62
2021/12/25 02:40:42;;;;;;;7.20;1.45;;;17.50;26.70;;;;;;5057079;28;20205;-62
2021/12/25 02:43:11;;;;;;;5.20;1.30;;;17.50;26.30;;;;;;5056937;28;20267;-62
2021/12/25 02:45:39;;;;;;;5.10;1.73;;;17.50;27.20;;;;;;5056522;28;20530;-61
2021/12/25 02:48:09;;;;;;;2.78;1.10;;;17.50;27.10;;;;;;5047905;28;20225;-62
2021/12/25 02:50:39;;;;;;;2.47;1.30;;;17.50;27.20;;;;;;5036002;28;20205;-62
2021/12/25 02:53:10;;;;;;;5.35;1.40;;;17.50;26.00;;;;;;5036543;28;20221;-61
2021/12/25 02:55:39;;;;;;;8.52;2.47;;;17.40;26.30;;;;;;5036173;28;20236;-60
2021/12/25 02:58:07;;;;;;;3.22;1.58;;;17.40;26.20;;;;;;5035717;28;20229;-59
2021/12/25 03:00:38;;;;;;;2.65;1.20;;;17.40;26.10;;;;;;5036527;28;20220;-59
2021/12/25 03:03:07;;;;;;;3.30;1.15;;;17.50;26.30;;;;;;5036155;28;20214;-59
2021/12/25 03:05:35;;;;;;;2.90;1.40;;;17.50;26.20;;;;;;5036205;28;20491;-59
2021/12/25 03:08:03;;;;;;;2.60;1.27;;;17.50;26.20;;;;;;5036024;28;20240;-59
2021/12/25 03:10:34;;;;;;;2.10;1.10;;;17.40;26.20;;;;;;5034608;28;20738;-59
2021/12/25 03:13:18;;;;;;;1.25;1.05;;;17.40;26.40;;;;;;5035906;28;20205;-59
2021/12/25 03:15:47;;;;;;;1.25;0.90;;;17.40;26.40;;;;;;5049331;28;20595;-59
2021/12/25 03:18:15;;;;;;;1.65;1.50;;;17.40;26.40;;;;;;5037645;28;20291;-59
2021/12/25 03:20:44;;;;;;;1.75;1.10;;;17.40;26.20;;;;;;5035241;28;20584;-59
2021/12/25 03:23:13;;;;;;;1.45;1.00;;;17.40;26.90;;;;;;5036094;28;20241;-59
2021/12/25 03:25:44;;;;;;;2.05;1.00;;;17.40;26.40;;;;;;5035672;28;20217;-58
2021/12/25 03:28:12;;;;;;;1.95;1.10;;;17.40;26.40;;;;;;5035384;28;20520;-59
2021/12/25 03:30:40;;;;;;;1.80;1.00;;;17.40;26.60;;;;;;5036311;28;20275;-59
2021/12/25 03:33:10;;;;;;;2.08;0.95;;;17.30;26.40;;;;;;5035755;28;20221;-59
2021/12/25 03:35:37;;;;;;;1.05;0.90;;;17.40;26.50;;;;;;5035988;28;20206;-59
2021/12/25 03:38:07;;;;;;;1.45;1.10;;;17.30;26.50;;;;;;5035665;28;20273;-59
2021/12/25 03:40:35;;;;;;;1.30;1.00;;;17.30;26.50;;;;;;5035521;28;20205;-59
2021/12/25 03:43:05;;;;;;;1.10;1.00;;;17.30;26.70;;;;;;5048094;28;20208;-60
2021/12/25 03:45:33;;;;;;;1.05;0.98;;;17.30;26.50;;;;;;5055281;28;20251;-59
2021/12/25 03:48:08;;;;;;;1.55;0.93;;;17.30;26.60;;;;;;5055360;28;20700;-60
2021/12/25 03:53:37;;;;;;;1.42;0.95;;;17.30;26.80;;;;;;5054680;28;20200;-59
2021/12/25 03:58:52;;;;;;;1.05;0.77;;;17.20;27.30;;;;;;5054665;28;20247;-59
2021/12/25 04:01:29;;;;;;;1.58;1.10;;;17.30;26.70;;;;;;5054943;28;20270;-59
2021/12/25 04:04:11;;;;;;;1.30;1.05;;;17.20;26.70;;;;;;5055056;28;20339;-59
2021/12/25 04:06:46;;;;;;;1.10;1.00;;;17.20;26.60;;;;;;5055013;28;20704;-59
2021/12/25 04:09:22;;;;;;;1.10;0.90;;;17.20;26.60;;;;;;5051542;28;20543;-59
2021/12/25 04:11:51;;;;;;;0.77;0.77;;;17.20;26.70;;;;;;5035173;28;20220;-59
2021/12/25 04:14:20;;;;;;;1.00;0.80;;;17.20;26.80;;;;;;5035268;28;20546;-59
2021/12/25 04:16:48;;;;;;;2.00;0.80;;;17.20;26.60;;;;;;5035086;28;20205;-59
2021/12/25 04:19:17;;;;;;;1.30;0.70;;;17.20;26.60;;;;;;5035261;28;20597;-59
2021/12/25 04:21:52;;;;;;;1.15;0.77;;;17.20;26.70;;;;;;5034618;28;20206;-59
2021/12/25 04:24:20;;;;;;;4.47;1.10;;;17.20;26.70;;;;;;5035008;28;20220;-59
2021/12/25 04:26:49;;;;;;;2.35;0.70;;;17.20;26.60;;;;;;5035256;28;20276;-59
2021/12/25 04:29:33;;;;;;;1.02;0.90;;;17.20;26.60;;;;;;5036475;28;20213;-59
2021/12/25 04:32:36;;;;;;;1.42;0.80;;;17.10;26.70;;;;;;5034941;28;20206;-59
2021/12/25 05:02:52;;;;;;;0.70;0.60;;;17.00;26.50;;;;;;5034694;28;20252;-59
2021/12/25 05:05:22;;;;;;;0.90;0.63;;;17.00;26.50;;;;;;5034956;28;20217;-58
2021/12/25 05:07:50;;;;;;;1.65;0.60;;;17.00;26.50;;;;;;5035052;28;20205;-59
2021/12/25 05:10:17;;;;;;;3.00;0.95;;;17.00;26.70;;;;;;5034806;28;20210;-60
2021/12/25 05:12:45;;;;;;;0.60;0.60;;;17.00;26.80;;;;;;5035094;28;20308;-60
2021/12/25 05:15:13;;;;;;;1.02;0.70;;;17.00;26.70;;;;;;5035133;28;20308;-60
2021/12/25 05:17:40;;;;;;;1.25;0.70;;;17.00;26.80;;;;;;5034867;28;20221;-59
2021/12/25 05:20:09;;;;;;;1.13;0.80;;;17.00;26.90;;;;;;5034639;28;20206;-60
2021/12/25 05:22:38;;;;;;;1.20;0.70;;;16.90;26.70;;;;;;5034573;28;20272;-59
2021/12/25 05:25:06;;;;;;;0.93;0.80;;;16.90;27.30;;;;;;5016482;28;20207;-59
2021/12/25 05:27:34;;;;;;;1.45;0.70;;;16.90;26.70;;;;;;5014553;28;20578;-60
2021/12/25 05:30:01;;;;;;;0.63;0.50;;;16.90;26.60;;;;;;5014444;28;20326;-59
2021/12/25 05:32:29;;;;;;;0.60;0.60;;;16.90;26.50;;;;;;5014249;28;20207;-60
2021/12/25 05:34:57;;;;;;;0.63;0.60;;;16.90;26.70;;;;;;5017319;28;20206;-59
2021/12/25 05:37:24;;;;;;;0.80;0.60;;;16.90;26.60;;;;;;5017983;28;20222;-59
2021/12/25 05:39:53;;;;;;;0.60;0.60;;;16.90;26.80;;;;;;5018429;28;20210;-59
2021/12/25 05:42:23;;;;;;;0.50;0.50;;;16.90;26.80;;;;;;5017757;28;20704;-59
2021/12/25 05:44:51;;;;;;;0.57;0.52;;;16.90;26.70;;;;;;5018007;28;20202;-59
2021/12/25 05:47:19;;;;;;;1.02;0.60;;;16.90;26.60;;;;;;5017986;28;20202;-59
2021/12/25 05:49:47;;;;;;;0.65;0.60;;;16.80;26.70;;;;;;5017115;28;20218;-59
2021/12/25 05:52:15;;;;;;;0.50;0.50;;;16.80;26.70;;;;;;5033091;28;20660;-60
2021/12/25 05:54:42;;;;;;;1.05;0.50;;;16.80;26.90;;;;;;5040797;28;20482;-60
2021/12/25 05:57:12;;;;;;;0.50;0.43;;;16.80;26.80;;;;;;5056540;28;20274;-60
2021/12/25 05:59:39;;;;;;;0.82;0.60;;;16.80;26.80;;;;;;5057096;28;20608;-59
2021/12/25 06:02:07;;;;;;;0.47;0.47;;;16.80;26.40;;;;;;5057523;28;20216;-60
2021/12/25 06:04:35;;;;;;;0.50;0.50;;;16.80;26.70;;;;;;5057401;28;20581;-59
2021/12/25 06:07:03;;;;;;;0.40;0.40;;;16.80;26.60;;;;;;5057356;28;20209;-59
2021/12/25 06:09:31;;;;;;;0.50;0.50;;;16.80;26.50;;;;;;5057490;28;20207;-59
2021/12/25 06:11:59;;;;;;;0.68;0.40;;;16.80;26.40;;;;;;5057466;28;20561;-59
2021/12/25 06:14:28;;;;;;;0.45;0.45;;;16.70;26.30;;;;;;5057146;28;20213;-59
2021/12/25 06:16:56;;;;;;;1.63;0.60;;;16.70;26.60;;;;;;5057311;28;20217;-59
2021/12/25 06:19:24;;;;;;;0.57;0.57;;;16.70;26.40;;;;;;5041041;28;20283;-59
2021/12/25 06:21:51;;;;;;;0.43;0.43;;;16.70;26.50;;;;;;5036772;28;20560;-60
2021/12/25 06:24:20;;;;;;;0.55;0.50;;;16.70;26.50;;;;;;5037135;28;20538;-60
2021/12/25 06:26:48;;;;;;;0.80;0.55;;;16.70;26.40;;;;;;5036070;28;20602;-60
2021/12/25 06:29:19;;;;;;;0.50;0.50;;;16.70;26.40;;;;;;5037638;28;20480;-60
2021/12/25 06:31:50;;;;;;;1.33;0.50;;;16.70;26.30;;;;;;5035570;28;20216;-59
2021/12/25 06:34:17;;;;;;;0.68;0.50;;;16.70;26.20;;;;;;5036751;28;20229;-60
2021/12/25 06:36:45;;;;;;;1.17;0.50;;;16.70;26.60;;;;;;5036190;28;20221;-60
2021/12/25 06:39:15;;;;;;;0.40;0.40;;;16.70;26.60;;;;;;5036298;28;20234;-60
2021/12/25 06:41:42;;;;;;;0.50;0.50;;;16.70;26.50;;;;;;5036021;28;20617;-60
2021/12/25 06:44:10;;;;;;;0.43;0.43;;;16.70;26.30;;;;;;5036215;28;20593;-59
2021/12/25 06:46:38;;;;;;;0.50;0.50;;;16.70;26.60;;;;;;5050174;28;20262;-60
2021/12/25 06:49:07;;;;;;;0.73;0.50;;;16.60;26.60;;;;;;5055650;28;20205;-59
2021/12/25 06:51:35;;;;;;;0.50;0.43;;;16.60;26.40;;;;;;5055429;28;20276;-59
2021/12/25 06:54:03;;;;;;;0.40;0.40;;;16.60;26.40;;;;;;5055757;28;20596;-59
2021/12/25 06:56:31;;;;;;;0.55;0.47;;;16.60;26.70;;;;;;5055317;28;20605;-59
2021/12/25 06:58:58;;;;;;;0.43;0.43;;;16.60;26.50;;;;;;5055532;28;20269;-59
2021/12/25 07:01:26;;;;;;;0.65;0.45;;;16.60;26.60;;;;;;5046886;28;20241;-60
2021/12/25 07:03:53;;;;;;;0.43;0.43;;;16.60;26.50;;;;;;5024026;28;20237;-59
2021/12/25 07:06:22;;;;;;;0.50;0.40;;;16.60;26.50;;;;;;5035297;28;20214;-59
2021/12/25 07:08:49;;;;;;;1.20;0.50;;;16.60;26.20;;;;;;5034943;28;20267;-59
2021/12/25 07:11:17;;;;;;;0.40;0.40;;;16.60;26.60;;;;;;5025839;28;20233;-59
2021/12/25 07:13:46;;;;;;;0.40;0.40;;;16.50;26.50;;;;;;5044806;28;20233;-59
2021/12/25 07:16:14;;;;;;;0.60;0.60;;;16.50;26.40;;;;;;5055668;28;20209;-59
2021/12/25 07:18:41;;;;;;;1.20;0.50;;;16.50;26.40;;;;;;5054940;28;20256;-59
2021/12/25 07:21:08;;;;;;;0.30;0.30;;;16.50;26.50;;;;;;5055242;28;20261;-60
2021/12/25 07:23:37;;;;;;;0.47;0.47;;;16.50;26.40;;;;;;5054667;28;20243;-59
2021/12/25 07:26:05;;;;;;;0.50;0.50;;;16.50;26.60;;;;;;5060557;28;20227;-60
2021/12/25 07:28:33;;;;;;;0.40;0.40;;;16.50;26.50;;;;;;5054355;28;20222;-60
2021/12/25 07:31:01;;;;;;;0.60;0.60;;;16.50;26.40;;;;;;5055171;28;20607;-59
2021/12/25 07:33:29;;;;;;;1.85;0.40;;;16.50;26.50;;;;;;5054530;28;20266;-60
2021/12/25 07:35:57;;;;;;;0.50;0.50;;;16.40;26.40;;;;;;5055057;28;20455;-58
2021/12/25 07:38:24;;;;;;;0.60;0.60;;;16.50;26.60;;;;;;5054736;28;20225;-58
2021/12/25 07:40:53;;;;;;;1.40;0.40;;;16.40;26.50;;;;;;5037961;28;20243;-58
2021/12/25 07:43:20;;;;;;;0.43;0.43;;;16.40;26.60;;;;;;5034072;28;20493;-58
2021/12/25 07:45:50;;;;;;;0.47;0.47;;;16.40;26.60;;;;;;5034998;28;20209;-59
2021/12/25 07:48:19;;;;;;;0.75;0.60;;;16.40;26.60;;;;;;5034873;28;20212;-59
2021/12/25 07:50:47;;;;;;;0.55;0.52;;;16.40;26.50;;;;;;5033814;28;20214;-59
2021/12/25 07:53:16;;;;;;;0.57;0.50;;;16.40;26.70;;;;;;5023614;28;20241;-60
2021/12/25 07:55:43;;;;;;;0.60;0.57;;;16.30;26.50;;;;;;5033695;28;20518;-59
2021/12/25 07:58:12;;;;;;;0.50;0.50;;;16.30;26.50;;;;;;5033831;28;20229;-59
2021/12/25 08:00:39;;;;;;;0.45;0.45;;;16.30;26.70;;;;;;5034965;28;20205;-59
2021/12/25 08:03:06;;;;;;;0.60;0.60;;;16.30;26.80;;;;;;5021450;28;20522;-59
2021/12/25 08:05:34;;;;;;;0.52;0.52;;;16.30;26.70;;;;;;5023531;28;20214;-59
2021/12/25 08:08:01;;;;;;;1.30;0.65;;;16.30;26.80;;;;;;5035759;28;20202;-59
2021/12/25 08:10:28;;;;;;;0.50;0.50;;;16.30;26.60;;;;;;5054694;28;20208;-60
2021/12/25 08:12:57;;;;;;;0.50;0.50;;;16.30;26.70;;;;;;5053997;28;20209;-59
2021/12/25 08:15:27;;;;;;;0.60;0.60;;;16.30;26.60;;;;;;5054547;28;20209;-60
2021/12/25 08:17:56;;;;;;;0.70;0.70;;;16.30;26.80;;;;;;5057720;28;20509;-60
2021/12/25 08:20:24;;;;;;;0.50;0.50;;;16.20;26.60;;;;;;5056549;28;20208;-59
2021/12/25 08:22:52;;;;;;;0.50;0.50;;;16.20;26.70;;;;;;5054690;28;20209;-60
2021/12/25 08:25:19;;;;;;;0.45;0.45;;;16.20;26.90;;;;;;5055399;28;20220;-60
2021/12/25 08:27:48;;;;;;;0.60;0.60;;;16.20;27.00;;;;;;5055151;28;20232;-60
2021/12/25 08:30:16;;;;;;;0.60;0.60;;;16.20;26.80;;;;;;5055061;28;20627;-60
2021/12/25 08:32:45;;;;;;;0.70;0.70;;;16.20;26.70;;;;;;5054803;28;20220;-60
2021/12/25 08:35:16;;;;;;;0.77;0.52;;;16.20;26.90;;;;;;5049099;28;20526;-60
2021/12/25 08:37:44;;;;;;;0.57;0.57;;;16.20;26.60;;;;;;5056205;28;20201;-60
2021/12/25 08:40:14;;;;;;;0.60;0.60;;;16.20;26.90;;;;;;5050727;28;20264;-60
2021/12/25 08:42:45;;;;;;;0.50;0.50;;;16.20;27.10;;;;;;5052641;28;20759;-60
2021/12/25 08:45:30;;;;;;;0.80;0.50;;;16.20;26.90;;;;;;5061253;28;20240;-60
2021/12/25 08:48:00;;;;;;;0.43;0.43;;;16.20;26.80;;;;;;5054906;28;20274;-59
2021/12/25 08:50:27;;;;;;;0.45;0.45;;;16.10;26.60;;;;;;5054848;28;20604;-60
2021/12/25 08:52:55;;;;;;;0.50;0.50;;;16.10;26.90;;;;;;5054621;28;20201;-60
2021/12/25 08:55:22;;;;;;;0.60;0.60;;;16.10;26.90;;;;;;5054431;28;20236;-61
2021/12/25 08:57:49;;;;;;;0.50;0.50;;;16.10;27.10;;;;;;5054370;28;20596;-59
2021/12/25 09:00:17;;;;;;;0.60;0.60;;;16.10;27.00;;;;;;5054585;28;20224;-60
2021/12/25 09:02:44;;;;;;;0.40;0.40;;;16.10;26.60;;;;;;5053996;28;20247;-59
2021/12/25 09:05:13;;;;;;;0.50;0.50;;;16.10;27.00;;;;;;5026644;28;20198;-59
2021/12/25 09:07:40;;;;;;;0.43;0.43;;;16.10;27.00;;;;;;5035432;28;20209;-60
2021/12/25 09:10:07;;;;;;;0.50;0.50;;;16.10;27.00;;;;;;5037916;28;20210;-60
2021/12/25 09:12:40;;;;;;;0.50;0.50;;;16.00;27.20;;;;;;5038463;28;20221;-60
2021/12/25 09:15:07;;;;;;;0.70;0.70;;;16.00;26.80;;;;;;5038242;28;20224;-59
2021/12/25 09:17:35;;;;;;;0.57;0.57;;;16.00;26.80;;;;;;5037275;28;20218;-59
2021/12/25 09:20:02;;;;;;;1.05;0.50;;;16.00;26.80;;;;;;5026786;28;20241;-60
2021/12/25 09:22:30;;;;;;;1.13;0.50;;;16.00;26.80;;;;;;5038365;28;20224;-59
2021/12/25 09:24:57;;;;;;;0.85;0.50;;;16.00;26.50;;;;;;5038075;28;20206;-59
2021/12/25 09:27:25;;;;;;;1.75;0.60;;;16.00;27.00;;;;;;5037752;28;20214;-59
2021/12/25 09:29:52;;;;;;;0.50;0.50;;;16.00;26.70;;;;;;5027137;28;20273;-59
2021/12/25 09:32:20;;;;;;;0.45;0.45;;;16.00;26.70;;;;;;5054614;28;20597;-59
2021/12/25 09:34:47;;;;;;;0.60;0.60;;;16.00;26.70;;;;;;5057851;28;20274;-58
2021/12/25 09:37:14;;;;;;;0.60;0.60;;;15.90;26.80;;;;;;5058090;28;20204;-59
2021/12/25 09:39:43;;;;;;;0.68;0.68;;;16.00;26.80;;;;;;5057708;28;20232;-59
2021/12/25 09:42:10;;;;;;;0.50;0.50;;;15.90;26.90;;;;;;5058186;28;20220;-59
2021/12/25 09:44:37;;;;;;;0.57;0.57;;;15.90;26.90;;;;;;5057858;28;20215;-59
2021/12/25 09:47:05;;;;;;;0.80;0.45;;;15.90;27.00;;;;;;5058887;28;20205;-59
2021/12/25 09:49:34;;;;;;;0.68;0.68;;;15.90;26.90;;;;;;5058107;28;20296;-59
2021/12/25 09:52:01;;;;;;;0.40;0.40;;;15.90;27.00;;;;;;5058137;28;20615;-59
2021/12/25 09:54:28;;;;;;;0.47;0.47;;;15.90;26.90;;;;;;5058198;28;20204;-59
2021/12/25 09:56:58;;;;;;;0.50;0.50;;;15.90;26.90;;;;;;5057904;28;20294;-59
2021/12/25 09:59:27;;;;;;;0.65;0.50;;;15.80;27.10;;;;;;5043285;28;20225;-59
2021/12/25 10:01:56;;;;;;;0.68;0.68;;;15.80;26.80;;;;;;5036483;28;20224;-59
2021/12/25 10:04:35;;;;;;;0.70;0.70;;;15.90;26.90;;;;;;5036986;28;20214;-59
2021/12/25 10:07:24;;;;;;;0.70;0.70;;;15.80;27.00;;;;;;5036567;28;20245;-59
2021/12/25 10:10:01;;;;;;;0.70;0.63;;;15.80;26.90;;;;;;5036039;28;20516;-59
2021/12/25 10:12:35;;;;;;;0.77;0.50;;;15.80;26.60;;;;;;5036063;28;20209;-59
2021/12/25 10:15:04;;;;;;;2.55;0.80;;;15.80;27.30;;;;;;5036381;28;20209;-59
2021/12/25 10:17:33;;;;;;;2.20;0.80;;;15.80;26.80;;;;;;5037015;28;20221;-59
2021/12/25 10:20:05;;;;;;;1.33;0.68;;;15.80;26.90;;;;;;5036183;28;20228;-59
2021/12/25 10:22:33;;;;;;;2.65;0.80;;;15.80;27.10;;;;;;5035727;28;20216;-59
2021/12/25 10:25:10;;;;;;;2.78;0.77;;;15.80;26.70;;;;;;5036581;28;20502;-59
2021/12/25 10:27:47;;;;;;;0.80;0.80;;;15.80;26.90;;;;;;5036557;28;20205;-59
2021/12/25 10:30:14;;;;;;;0.60;0.60;;;15.80;26.80;;;;;;5025920;28;20240;-59
2021/12/25 10:32:41;;;;;;;0.80;0.80;;;15.80;27.10;;;;;;5035690;28;20627;-59
2021/12/25 10:35:17;;;;;;;0.80;0.60;;;15.80;26.90;;;;;;5026133;28;20237;-59
2021/12/25 10:37:46;;;;;;;0.80;0.77;;;15.80;27.00;;;;;;5035344;28;20532;-59
2021/12/25 10:40:25;;;;;;;0.90;0.60;;;15.80;27.00;;;;;;5035992;28;20304;-59
2021/12/25 10:42:56;;;;;;;0.80;0.80;;;15.80;26.90;;;;;;5036055;28;20509;-59
2021/12/25 10:45:26;;;;;;;0.95;0.80;;;15.80;26.80;;;;;;5036176;28;20632;-59
2021/12/25 10:48:06;;;;;;;1.17;1.00;;;15.80;26.80;;;;;;5035330;28;20206;-59
2021/12/25 10:50:40;;;;;;;2.72;2.40;;;15.80;26.70;;;;;;5036451;28;20209;-59
2021/12/25 10:53:24;;;;;;;26.08;23.33;;;15.80;26.70;;;;;;5036289;28;20211;-59
2021/12/25 10:55:51;;;;;;;30.20;26.77;;;15.80;26.70;;;;;;5036189;28;20249;-59
2021/12/25 10:58:21;;;;;;;29.08;23.30;;;15.80;26.70;;;;;;5036044;28;20210;-59
2021/12/25 11:00:55;;;;;;;24.35;20.10;;;15.80;26.70;;;;;;5035704;28;20261;-58
2021/12/25 11:03:31;;;;;;;39.50;35.20;;;15.80;26.70;;;;;;5036060;28;20232;-58
2021/12/25 11:06:03;;;;;;;38.65;32.28;;;15.80;26.80;;;;;;5036272;28;20212;-59
2021/12/25 11:08:31;;;;;;;33.85;28.83;;;15.70;26.60;;;;;;5036440;28;20557;-59
2021/12/25 11:11:00;;;;;;;30.50;27.10;;;15.70;26.60;;;;;;5035609;28;20220;-59
2021/12/25 11:13:31;;;;;;;30.23;25.90;;;15.70;26.60;;;;;;5036280;28;20210;-58
2021/12/25 11:16:05;;;;;;;29.08;24.85;;;15.70;26.60;;;;;;5036221;28;20214;-58
2021/12/25 11:18:48;;;;;;;27.55;24.65;;;15.70;26.60;;;;;;5035856;28;20213;-58
2021/12/25 11:21:15;;;;;;;25.95;23.13;;;15.70;26.60;;;;;;5035452;28;20256;-59
2021/12/25 11:23:44;;;;;;;25.25;22.55;;;15.70;27.20;;;;;;5035797;28;20210;-59
2021/12/25 11:26:11;;;;;;;23.17;20.80;;;15.70;26.50;;;;;;5024895;28;20412;-59
2021/12/25 11:28:40;;;;;;;25.92;22.88;;;15.70;26.60;;;;;;5036249;28;20209;-60
2021/12/25 11:31:07;;;;;;;25.00;22.38;;;15.70;26.50;;;;;;5034572;28;20314;-59
2021/12/25 11:33:34;;;;;;;24.00;20.65;;;15.70;26.50;;;;;;5035850;28;20213;-59
2021/12/25 11:36:03;;;;;;;23.58;21.08;;;15.70;26.50;;;;;;5035570;28;20216;-58
2021/12/25 11:38:30;;;;;;;23.33;19.80;;;15.60;26.40;;;;;;5036041;28;20214;-59
2021/12/25 11:41:06;;;;;;;19.77;17.70;;;15.70;26.50;;;;;;5038894;28;20227;-59
2021/12/25 11:43:41;;;;;;;20.80;17.17;;;15.60;26.40;;;;;;5055844;28;20755;-59
2021/12/25 11:46:09;;;;;;;19.77;17.40;;;15.60;26.40;;;;;;5055122;28;20269;-59
2021/12/25 11:48:37;;;;;;;20.92;16.17;;;15.70;26.40;;;;;;5055093;28;20208;-59
2021/12/25 11:51:06;;;;;;;29.63;23.58;;;15.60;26.40;;;;;;5055220;28;20209;-59
2021/12/25 11:54:03;;;;;;;28.30;21.73;;;15.60;26.40;;;;;;5055502;28;20209;-59
2021/12/25 11:56:37;;;;;;;22.25;18.98;;;15.60;26.40;;;;;;5054783;28;20247;-59
2021/12/25 11:59:14;;;;;;;21.45;18.23;;;15.60;26.40;;;;;;5055542;28;20209;-59
2021/12/25 12:01:43;;;;;;;21.48;18.75;;;15.60;26.40;;;;;;5054595;28;20220;-59
2021/12/25 12:04:18;;;;;;;20.10;17.30;;;15.60;26.40;;;;;;5054999;28;20205;-59
2021/12/25 12:07:12;;;;;;;18.70;16.25;;;15.60;26.40;;;;;;5055093;28;20488;-58
2021/12/25 12:09:54;;;;;;;17.55;14.95;;;15.60;26.40;;;;;;5040045;28;20201;-58
2021/12/25 12:12:24;;;;;;;17.25;15.38;;;15.60;26.40;;;;;;5034607;28;20284;-58
2021/12/25 12:15:14;;;;;;;27.00;24.30;;;15.60;26.40;;;;;;5035121;28;20217;-59
2021/12/25 12:17:43;;;;;;;24.77;22.27;;;15.60;26.50;;;;;;5035128;28;20304;-59
2021/12/25 12:20:16;;;;;;;23.25;20.40;;;15.70;26.60;;;;;;5034299;28;20234;-59
2021/12/25 12:22:56;;;;;;;20.90;18.85;;;15.70;26.60;;;;;;5034685;28;20214;-58
2021/12/25 12:25:44;;;;;;;20.65;18.02;;;15.70;26.70;;;;;;5023592;28;20324;-58
2021/12/25 12:28:11;;;;;;;18.50;16.73;;;15.70;26.80;;;;;;5035014;28;20217;-59
2021/12/25 12:30:47;;;;;;;18.30;16.40;;;15.80;26.80;;;;;;5033405;28;20288;-58
2021/12/25 12:33:35;;;;;;;17.35;15.48;;;15.80;26.90;;;;;;5015115;28;20597;-58
2021/12/25 12:36:04;;;;;;;16.95;15.05;;;15.80;26.90;;;;;;5022062;28;20197;-58
2021/12/25 12:38:39;;;;;;;21.70;14.63;;;15.80;26.90;;;;;;5054957;28;20205;-59
2021/12/25 12:41:15;;;;;;;17.08;13.25;;;15.80;27.10;;;;;;5055145;28;20573;-60
2021/12/25 12:44:00;;;;;;;14.35;12.65;;;15.80;27.20;;;;;;5056943;28;20251;-59
2021/12/25 12:46:59;;;;;;;14.43;11.40;;;15.80;27.00;;;;;;5058686;28;20208;-59
2021/12/25 12:49:33;;;;;;;16.08;10.63;;;15.80;26.90;;;;;;5058196;28;20219;-59
2021/12/25 12:52:23;;;;;;;11.98;10.70;;;15.80;26.80;;;;;;5058652;28;20568;-59
2021/12/25 12:54:52;;;;;;;12.75;10.00;;;15.80;26.80;;;;;;5058696;28;20286;-59
2021/12/25 12:57:27;;;;;;;10.90;9.43;;;15.90;26.90;;;;;;5058538;28;20596;-59
2021/12/25 12:59:56;;;;;;;10.82;9.00;;;15.90;26.90;;;;;;5058638;28;20228;-60
2021/12/25 13:02:27;;;;;;;9.68;8.68;;;15.90;26.90;;;;;;5058732;28;20224;-60
2021/12/25 13:04:58;;;;;;;10.98;8.82;;;15.90;26.90;;;;;;5044596;28;20197;-59
2021/12/25 13:07:27;;;;;;;8.75;7.85;;;15.90;26.90;;;;;;5038261;28;20209;-59
2021/12/25 13:10:02;;;;;;;9.45;7.93;;;15.90;26.80;;;;;;5038332;28;20214;-60
2021/12/25 13:12:40;;;;;;;9.65;7.65;;;15.90;26.80;;;;;;5037943;28;20213;-60
2021/12/25 13:15:13;;;;;;;10.45;9.45;;;16.00;26.80;;;;;;5038419;28;20217;-60
2021/12/25 13:17:51;;;;;;;9.27;8.38;;;16.00;26.80;;;;;;5037802;28;20340;-59
2021/12/25 13:20:19;;;;;;;9.48;7.90;;;15.90;26.70;;;;;;5037509;28;20229;-60
2021/12/25 13:22:57;;;;;;;9.65;8.10;;;15.90;26.70;;;;;;5037636;28;20210;-60
2021/12/25 13:25:24;;;;;;;8.80;7.88;;;15.90;26.70;;;;;;5037365;28;20237;-59
2021/12/25 13:27:57;;;;;;;9.70;8.18;;;15.80;26.50;;;;;;5036846;28;20491;-59
2021/12/25 13:30:26;;;;;;;8.10;7.30;;;15.80;26.50;;;;;;5037356;28;20205;-59
2021/12/25 13:32:55;;;;;;;8.27;7.15;;;15.80;26.60;;;;;;5027059;28;20197;-59
2021/12/25 13:35:25;;;;;;;8.60;6.70;;;15.80;26.50;;;;;;5036210;28;20497;-59
2021/12/25 13:37:59;;;;;;;7.22;6.43;;;15.90;26.70;;;;;;5037214;28;20305;-59
2021/12/25 13:40:26;;;;;;;6.57;5.95;;;15.90;26.60;;;;;;5036686;28;20648;-59
2021/12/25 13:42:53;;;;;;;7.78;5.97;;;15.90;26.60;;;;;;5036227;28;20604;-59
2021/12/25 13:45:22;;;;;;;7.05;5.55;;;15.90;26.60;;;;;;5036312;28;20224;-59
2021/12/25 13:47:49;;;;;;;6.97;5.78;;;15.90;26.60;;;;;;5036600;28;20216;-59
2021/12/25 13:50:17;;;;;;;7.78;6.97;;;15.90;26.60;;;;;;5035468;28;20209;-59